Etusivu
METAR-TAF:

METAR-TAF

Lentoasemat :

Kiirunan lentoasema

Kiruna, Ruotsi

Leveyspiiri: 67-49N, Pituuspiiri: 020-20E, korkeus merenpinnasta: 452 m

Tämänhetkinen sää

Tämä raportti tehtiin 29 minuuttia sitten, kello 04.20 UTC
Tuuli 10 kn etelästä
Lämpötila 1°C
Kosteus 93%
Ilmanpaine 986 hPa
Näkyvyys 10 km tai enemmän
Hajonneita pilviä 700 ft:n korkeudessa
Hajonneita pilviä 900 ft:n korkeudessa
Pilvistä 1100 ft:n korkeudessa

METAR: ESNQ 260420Z 17010KT 9999 BKN007 BKN009 OVC011 01/M00 Q0986

Aika: 06:49 (04:49 UTC)

Sääennuste

Tämä raportti tehtiin 2 tuntia ja 19 minuuttia sitten, kello 02.30 UTC
Ennuste voimassa 26. päivästä klo 03 UTC - 26. päivään klo 12 UTC
Tuuli 10 kn etelästä
Näkyvyys 10 km tai enemmän
Hajanaisia pilviä 1000 ft:n korkeudessa
Ajoittain
26. päivästä klo 04 UTC - 26. päivään klo 12 UTC
Näkyvyys: 2000 m
Hajonneita pilviä 400 ft:n korkeudessa
lumisadetta, sadetta

TAF: ESNQ 260230Z 2603/2612 19010KT 9999 SCT010 TEMPO 2604/2612 2000 SNRA BKN004

Säähavainnot ja -ennusteet yli 4000 lentoasemalta (METAR- ja TAF-raportit).

Käytössä olevat sääasemat on merkitty karttaan keltaisilla ja punaisilla pisteillä.

Aseta hiiri pisteen päälle nähdäksesi sääaseman nimen.

Klikkaa sitten nähdäksesi säähavainnot ja -ennusteet.

Kartan vaihtaminen: klikkaa mustalla rastilla varustettuja vihreitä pisteitä, niin voit zoomata sisään; viivalla varustettua vihreää pistettä, niin voit zoomata ulos tai vihreitä nuolia, niin pääset viereisille kartoille.


METAR-TAF: